Time;durP1;ratioP1;P1;durP2;ratioP2;P2;SDS_P1;SDS_P2;PMS_P1;PMS_P2;Temp;Humidity;BMP_temperature;BMP_pressure;BME280_temperature;BME280_humidity;BME280_pressure;Samples;Min_cycle;Max_cycle;Signal;HPM_P1;HPM_P2
2022/03/18 00:00:18;;;;;;;1.50;1.30;;;5.00;98.20;;;;;;5059707;28;20872;-75
2022/03/18 00:02:45;;;;;;;1.50;1.40;;;5.00;98.20;;;;;;5068163;28;20492;-75
2022/03/18 00:05:12;;;;;;;1.57;1.30;;;5.00;98.20;;;;;;5063728;28;20466;-75
2022/03/18 00:07:40;;;;;;;1.60;1.30;;;5.00;98.20;;;;;;5056742;28;20539;-75
2022/03/18 00:10:09;;;;;;;1.50;1.30;;;5.00;98.20;;;;;;5068234;28;20458;-75
2022/03/18 00:12:37;;;;;;;5.30;3.50;;;4.90;98.20;;;;;;5062359;28;20458;-75
2022/03/18 00:15:06;;;;;;;3.10;2.90;;;4.90;98.20;;;;;;5061297;28;20835;-75
2022/03/18 00:17:32;;;;;;;1.57;1.40;;;4.90;98.20;;;;;;5061893;28;20482;-75
2022/03/18 00:19:59;;;;;;;1.57;1.30;;;4.90;98.20;;;;;;5068323;28;20468;-75
2022/03/18 00:22:26;;;;;;;1.53;1.30;;;4.80;98.20;;;;;;5043859;28;20477;-75
2022/03/18 00:24:53;;;;;;;1.57;1.30;;;4.80;98.20;;;;;;5064693;28;20457;-74
2022/03/18 00:27:21;;;;;;;1.57;1.30;;;4.80;98.20;;;;;;5051069;28;20879;-75
2022/03/18 00:29:48;;;;;;;1.60;1.40;;;4.70;98.20;;;;;;5060410;28;20461;-75
2022/03/18 00:32:14;;;;;;;1.57;1.30;;;4.70;98.20;;;;;;5067526;28;20978;-75
2022/03/18 00:34:41;;;;;;;1.60;1.40;;;4.70;98.20;;;;;;5061703;28;20469;-74
2022/03/18 00:37:08;;;;;;;1.50;1.30;;;4.60;98.20;;;;;;5067474;28;20488;-75
2022/03/18 00:39:35;;;;;;;1.57;1.30;;;4.60;98.20;;;;;;5061625;28;20489;-75
2022/03/18 00:42:03;;;;;;;1.60;1.40;;;4.60;98.20;;;;;;5054135;28;20477;-75
2022/03/18 00:44:31;;;;;;;1.60;1.30;;;4.60;98.20;;;;;;5064445;28;20474;-75
2022/03/18 00:46:58;;;;;;;1.60;1.30;;;4.60;98.20;;;;;;5061084;28;20477;-75
2022/03/18 00:52:11;;;;;;;1.57;1.30;;;4.50;98.20;;;;;;5068028;28;20614;-75
2022/03/18 00:54:40;;;;;;;1.50;1.30;;;4.50;98.20;;;;;;5065249;28;20968;-74
2022/03/18 00:57:08;;;;;;;1.57;1.30;;;4.50;98.20;;;;;;5063510;28;20482;-74
2022/03/18 00:59:36;;;;;;;1.60;1.40;;;4.50;98.20;;;;;;5063942;28;20611;-75
2022/03/18 01:02:04;;;;;;;1.60;1.40;;;4.50;98.20;;;;;;5068158;28;20468;-74
2022/03/18 01:04:30;;;;;;;1.60;1.40;;;4.40;98.20;;;;;;5068409;28;20461;-74
2022/03/18 01:06:58;;;;;;;1.60;1.30;;;4.40;98.20;;;;;;5064254;28;20489;-75
2022/03/18 01:09:27;;;;;;;1.60;1.50;;;4.40;98.20;;;;;;5071544;28;20472;-75
2022/03/18 01:11:55;;;;;;;1.53;1.40;;;4.30;98.20;;;;;;5069585;28;20511;-74
2022/03/18 01:14:22;;;;;;;1.57;1.40;;;4.30;98.20;;;;;;5078731;28;20751;-74
2022/03/18 01:16:50;;;;;;;1.50;1.30;;;4.30;98.20;;;;;;5063774;28;20492;-74
2022/03/18 01:19:18;;;;;;;1.60;1.50;;;4.30;98.20;;;;;;5071318;28;20496;-75
2022/03/18 01:21:45;;;;;;;1.60;1.40;;;4.30;98.20;;;;;;5071282;28;20538;-75
2022/03/18 01:24:12;;;;;;;1.57;1.40;;;4.20;98.20;;;;;;5071753;28;20828;-75
2022/03/18 01:26:39;;;;;;;1.57;1.40;;;4.20;98.20;;;;;;5066756;28;20472;-75
2022/03/18 01:29:06;;;;;;;1.57;1.40;;;4.10;98.20;;;;;;5057787;28;20460;-75
2022/03/18 01:31:34;;;;;;;1.60;1.40;;;4.10;98.20;;;;;;5065598;28;20473;-74
2022/03/18 01:34:02;;;;;;;1.60;1.43;;;4.10;98.20;;;;;;5065070;28;20560;-74
2022/03/18 01:36:29;;;;;;;1.60;1.30;;;4.10;98.20;;;;;;5070213;28;20638;-75
2022/03/18 01:38:55;;;;;;;1.60;1.40;;;4.10;98.20;;;;;;5071233;28;20481;-75
2022/03/18 01:41:22;;;;;;;1.60;1.40;;;4.10;98.20;;;;;;5059794;28;20813;-75
2022/03/18 01:43:49;;;;;;;1.60;1.40;;;4.10;98.20;;;;;;5069246;28;20465;-74
2022/03/18 01:46:17;;;;;;;1.60;1.40;;;4.00;98.20;;;;;;5062631;28;20458;-74
2022/03/18 01:48:44;;;;;;;1.70;1.60;;;4.00;98.20;;;;;;5070362;28;20539;-75
2022/03/18 01:51:15;;;;;;;1.60;1.50;;;4.00;98.20;;;;;;5057277;28;20481;-74
2022/03/18 01:53:44;;;;;;;1.60;1.40;;;4.00;98.20;;;;;;5066795;28;20504;-74
2022/03/18 01:56:11;;;;;;;1.60;1.47;;;4.00;98.20;;;;;;5069080;28;20571;-75
2022/03/18 01:58:38;;;;;;;1.60;1.50;;;3.90;98.20;;;;;;5065629;28;20843;-74
2022/03/18 02:01:05;;;;;;;1.60;1.40;;;3.90;98.20;;;;;;5070136;28;20469;-74
2022/03/18 02:03:32;;;;;;;1.60;1.50;;;3.90;98.20;;;;;;5070987;28;20472;-74
2022/03/18 02:05:59;;;;;;;1.60;1.50;;;3.90;98.20;;;;;;5067124;28;20461;-74
2022/03/18 02:08:28;;;;;;;1.60;1.40;;;3.90;98.20;;;;;;5070275;28;20485;-74
2022/03/18 02:10:55;;;;;;;1.57;1.40;;;3.90;98.20;;;;;;5069492;28;20828;-74
2022/03/18 02:13:22;;;;;;;1.60;1.40;;;3.80;98.20;;;;;;5066991;28;20546;-74
2022/03/18 02:15:49;;;;;;;1.57;1.30;;;3.80;98.20;;;;;;5051932;28;20457;-74
2022/03/18 02:18:15;;;;;;;1.60;1.43;;;3.80;98.20;;;;;;5080673;28;20485;-74
2022/03/18 02:20:42;;;;;;;1.57;1.30;;;3.80;98.20;;;;;;5065924;28;20465;-74
2022/03/18 02:23:11;;;;;;;1.60;1.50;;;3.80;98.20;;;;;;5058093;28;20464;-74
2022/03/18 02:25:38;;;;;;;1.60;1.40;;;3.70;98.20;;;;;;5065446;28;20473;-74
2022/03/18 02:28:05;;;;;;;1.70;1.60;;;3.70;98.20;;;;;;5052968;28;20485;-75
2022/03/18 02:30:34;;;;;;;1.60;1.40;;;3.70;98.20;;;;;;5068818;28;21014;-75
2022/03/18 02:33:01;;;;;;;1.60;1.50;;;3.70;98.20;;;;;;5069968;28;20458;-75
2022/03/18 02:35:29;;;;;;;1.60;1.50;;;3.70;98.20;;;;;;5069002;28;20834;-75
2022/03/18 02:37:56;;;;;;;1.60;1.40;;;3.60;98.20;;;;;;5069452;28;20481;-75
2022/03/18 02:40:25;;;;;;;1.60;1.40;;;3.60;98.20;;;;;;5069197;28;20744;-75
2022/03/18 02:42:52;;;;;;;1.60;1.40;;;3.50;98.20;;;;;;5069465;28;20468;-75
2022/03/18 02:45:19;;;;;;;2.23;2.03;;;3.50;98.20;;;;;;5067348;28;20467;-75
2022/03/18 02:47:46;;;;;;;1.57;1.30;;;3.50;98.20;;;;;;5069497;28;20482;-75
2022/03/18 02:50:15;;;;;;;1.60;1.30;;;3.50;98.20;;;;;;5069291;28;20970;-75
2022/03/18 02:52:42;;;;;;;1.60;1.43;;;3.50;98.20;;;;;;5073123;28;20881;-75
2022/03/18 02:55:10;;;;;;;1.60;1.50;;;3.50;98.20;;;;;;5069317;28;20476;-75
2022/03/18 02:57:38;;;;;;;1.60;1.50;;;3.40;98.20;;;;;;5059824;28;20486;-75
2022/03/18 03:00:06;;;;;;;1.60;1.40;;;3.40;98.20;;;;;;5060778;28;20485;-76
2022/03/18 03:02:33;;;;;;;1.60;1.37;;;3.40;98.20;;;;;;5066231;28;21015;-75
2022/03/18 03:08:02;;;;;;;1.60;1.40;;;3.40;98.20;;;;;;5062279;28;20572;-75
2022/03/18 03:10:29;;;;;;;1.60;1.50;;;3.40;98.20;;;;;;5067509;28;20453;-75
2022/03/18 03:12:59;;;;;;;1.60;1.50;;;3.40;98.20;;;;;;5068974;28;20465;-75
2022/03/18 03:15:27;;;;;;;1.60;1.40;;;3.40;98.20;;;;;;5067947;28;20464;-76
2022/03/18 03:17:53;;;;;;;1.60;1.50;;;3.40;98.20;;;;;;5067215;28;20481;-75
2022/03/18 03:20:20;;;;;;;1.60;1.50;;;3.40;98.20;;;;;;5068384;28;20489;-76
2022/03/18 03:22:47;;;;;;;2.27;2.07;;;3.40;98.20;;;;;;5074611;28;20857;-75
2022/03/18 03:25:14;;;;;;;1.60;1.50;;;3.30;98.20;;;;;;5069072;28;20471;-75
2022/03/18 03:27:41;;;;;;;1.60;1.40;;;3.30;98.20;;;;;;5060738;28;20489;-75
2022/03/18 03:30:11;;;;;;;1.60;1.40;;;3.30;98.20;;;;;;5066704;28;20453;-76
2022/03/18 03:32:39;;;;;;;1.60;1.40;;;3.30;98.20;;;;;;5065718;28;20981;-75
2022/03/18 03:35:08;;;;;;;1.60;1.40;;;3.30;98.20;;;;;;5059406;28;20821;-76
2022/03/18 03:37:35;;;;;;;1.60;1.40;;;3.30;98.20;;;;;;5061773;28;20977;-76
2022/03/18 03:40:02;;;;;;;1.60;1.40;;;3.30;98.20;;;;;;5068618;28;20958;-75
2022/03/18 03:42:30;;;;;;;1.60;1.50;;;3.30;98.20;;;;;;5067938;28;20568;-76
2022/03/18 03:44:57;;;;;;;1.60;1.50;;;3.30;98.20;;;;;;5066739;28;20466;-76
2022/03/18 03:47:25;;;;;;;1.60;1.40;;;3.30;98.20;;;;;;5064942;28;20609;-75
2022/03/18 03:49:52;;;;;;;1.60;1.43;;;3.30;98.20;;;;;;5067122;28;20457;-75
2022/03/18 03:52:19;;;;;;;1.60;1.50;;;3.30;98.20;;;;;;5065724;28;20982;-75
2022/03/18 03:54:45;;;;;;;1.60;1.40;;;3.30;98.20;;;;;;5068615;28;20942;-75
2022/03/18 03:57:13;;;;;;;1.60;1.50;;;3.30;98.20;;;;;;5058862;28;20833;-75
2022/03/18 03:59:40;;;;;;;3.40;3.20;;;3.20;98.20;;;;;;5066124;28;20520;-75
2022/03/18 04:02:08;;;;;;;1.60;1.43;;;3.20;98.20;;;;;;5067352;28;20464;-76
2022/03/18 04:04:36;;;;;;;1.60;1.50;;;3.20;98.20;;;;;;5068087;28;20856;-76
2022/03/18 04:07:03;;;;;;;1.60;1.50;;;3.20;98.20;;;;;;5063047;28;20477;-75
2022/03/18 04:09:29;;;;;;;1.60;1.50;;;3.10;98.20;;;;;;5067392;28;20548;-76
2022/03/18 04:11:56;;;;;;;1.60;1.47;;;3.10;98.20;;;;;;5068092;28;20881;-76
2022/03/18 04:14:23;;;;;;;1.77;1.67;;;3.10;98.20;;;;;;5067917;28;20461;-76
2022/03/18 04:16:50;;;;;;;1.60;1.50;;;3.00;98.20;;;;;;5064879;28;21004;-76
2022/03/18 04:19:17;;;;;;;1.60;1.40;;;3.00;98.20;;;;;;5096687;22;20790;-75
2022/03/18 04:21:46;;;;;;;1.60;1.50;;;3.00;98.20;;;;;;5059865;28;20964;-76
2022/03/18 04:24:12;;;;;;;1.57;1.40;;;3.00;98.20;;;;;;5065636;28;20461;-74
2022/03/18 04:26:39;;;;;;;1.60;1.50;;;3.00;98.20;;;;;;5055059;28;21009;-76
2022/03/18 04:29:08;;;;;;;1.60;1.50;;;3.00;98.20;;;;;;5054710;28;20479;-77
2022/03/18 04:31:34;;;;;;;1.60;1.50;;;2.90;98.20;;;;;;5064497;28;20961;-76
2022/03/18 04:34:01;;;;;;;1.57;1.43;;;2.90;98.20;;;;;;5068757;28;20547;-78
2022/03/18 04:36:28;;;;;;;44.80;10.00;;;2.90;98.20;;;;;;5063135;28;20496;-75
2022/03/18 04:38:56;;;;;;;1.60;1.50;;;2.90;98.20;;;;;;5061738;28;20477;-76
2022/03/18 04:41:23;;;;;;;1.60;1.40;;;2.80;98.20;;;;;;5065098;28;20472;-76
2022/03/18 04:43:50;;;;;;;1.90;1.80;;;2.80;98.20;;;;;;5068120;28;20933;-76
2022/03/18 04:46:17;;;;;;;1.60;1.50;;;2.80;98.20;;;;;;5063530;28;20565;-75
2022/03/18 04:48:43;;;;;;;1.60;1.50;;;2.80;98.20;;;;;;5067907;28;20458;-76
2022/03/18 04:51:10;;;;;;;1.60;1.50;;;2.80;98.20;;;;;;5067141;28;20466;-76
2022/03/18 04:53:39;;;;;;;1.70;1.60;;;2.80;98.20;;;;;;5066764;28;20945;-76
2022/03/18 04:57:15;;;;;;;1.60;1.50;;;2.80;98.20;;;;;;5053540;28;20937;-76
2022/03/18 04:58:54;;;;;;;1.60;1.50;;;2.70;98.20;;;;;;5065630;28;20496;-76
2022/03/18 05:01:21;;;;;;;1.70;1.60;;;2.70;98.20;;;;;;5066549;28;20965;-75
2022/03/18 05:03:48;;;;;;;1.70;1.60;;;2.60;98.20;;;;;;5065513;28;20857;-75
2022/03/18 05:06:15;;;;;;;1.60;1.50;;;2.60;98.20;;;;;;5054554;28;20477;-76
2022/03/18 05:08:41;;;;;;;1.60;1.50;;;2.50;98.20;;;;;;5065789;28;20465;-75
2022/03/18 05:11:09;;;;;;;1.60;1.50;;;2.50;98.20;;;;;;5066931;28;20453;-75
2022/03/18 05:13:36;;;;;;;1.67;1.57;;;2.50;98.20;;;;;;5067715;28;20461;-76
2022/03/18 05:16:04;;;;;;;1.60;1.50;;;2.40;98.20;;;;;;5065284;28;21027;-76
2022/03/18 05:18:30;;;;;;;1.60;1.40;;;2.40;98.20;;;;;;5068020;28;20469;-76
2022/03/18 05:20:57;;;;;;;1.60;1.50;;;2.40;98.20;;;;;;5066194;28;20493;-77
2022/03/18 05:23:25;;;;;;;1.70;1.60;;;2.30;98.20;;;;;;5067497;28;20462;-77
2022/03/18 05:25:51;;;;;;;1.60;1.40;;;2.30;98.20;;;;;;5065377;28;20462;-76
2022/03/18 05:28:19;;;;;;;1.80;1.70;;;2.30;98.20;;;;;;5056450;28;20462;-74
2022/03/18 05:30:46;;;;;;;1.60;1.40;;;2.30;98.20;;;;;;5061234;28;20501;-77
2022/03/18 05:33:13;;;;;;;1.70;1.60;;;2.20;98.20;;;;;;5066792;28;20476;-74
2022/03/18 05:35:40;;;;;;;1.60;1.50;;;2.20;98.20;;;;;;5061546;28;20465;-76
2022/03/18 05:38:06;;;;;;;1.60;1.50;;;2.20;98.20;;;;;;5060155;28;20464;-75
2022/03/18 05:40:33;;;;;;;1.60;1.50;;;2.10;98.20;;;;;;5070310;28;20805;-77
2022/03/18 05:43:00;;;;;;;1.60;1.50;;;2.10;98.20;;;;;;5071291;28;20942;-76
2022/03/18 05:45:28;;;;;;;1.60;1.50;;;2.10;98.20;;;;;;5066598;28;20466;-75
2022/03/18 05:47:56;;;;;;;1.60;1.50;;;2.10;98.20;;;;;;5069599;28;20496;-74
2022/03/18 05:50:23;;;;;;;1.60;1.50;;;2.00;98.20;;;;;;5062202;28;20481;-78
2022/03/18 05:52:49;;;;;;;1.80;1.70;;;2.00;98.20;;;;;;5071943;28;20465;-75
2022/03/18 05:55:16;;;;;;;1.80;1.70;;;2.00;98.20;;;;;;5070372;28;20543;-73
2022/03/18 05:57:42;;;;;;;1.70;1.60;;;2.00;98.20;;;;;;5066104;28;20543;-74
2022/03/18 06:00:10;;;;;;;1.60;1.47;;;2.00;98.20;;;;;;5063015;28;21012;-75
2022/03/18 06:02:38;;;;;;;1.60;1.50;;;2.00;98.20;;;;;;5069852;28;20473;-74
2022/03/18 06:05:16;;;;;;;1.70;1.60;;;2.00;98.20;;;;;;5071565;28;20465;-74
2022/03/18 06:07:43;;;;;;;1.60;1.50;;;2.00;98.20;;;;;;5066012;28;20450;-73
2022/03/18 06:12:55;;;;;;;1.67;1.57;;;2.00;98.20;;;;;;5067648;28;20934;-74
2022/03/18 06:15:21;;;;;;;1.60;1.50;;;2.00;98.20;;;;;;5064592;28;20482;-74
2022/03/18 06:17:49;;;;;;;1.60;1.50;;;2.00;98.20;;;;;;5063442;28;20466;-75
2022/03/18 06:20:16;;;;;;;1.90;1.80;;;2.00;98.20;;;;;;5068108;28;20496;-74
2022/03/18 06:22:43;;;;;;;1.70;1.60;;;2.00;98.20;;;;;;5056081;28;20478;-75
2022/03/18 06:25:10;;;;;;;1.60;1.40;;;2.10;98.20;;;;;;5069366;28;20468;-74
2022/03/18 06:27:37;;;;;;;1.70;1.60;;;2.20;98.20;;;;;;5064308;28;20462;-74
2022/03/18 06:30:04;;;;;;;1.60;1.50;;;2.30;98.20;;;;;;5067371;28;20473;-74
2022/03/18 06:32:31;;;;;;;1.60;1.50;;;2.40;98.20;;;;;;5068833;28;20480;-73
2022/03/18 06:34:59;;;;;;;1.60;1.40;;;2.50;98.20;;;;;;5069269;28;20974;-73
2022/03/18 06:37:26;;;;;;;1.60;1.50;;;2.70;98.20;;;;;;5065565;28;20458;-72
2022/03/18 06:39:53;;;;;;;1.60;1.50;;;2.90;98.20;;;;;;5068048;28;20576;-73
2022/03/18 06:42:19;;;;;;;1.70;1.60;;;3.20;98.20;;;;;;5068199;28;20500;-72
2022/03/18 06:44:46;;;;;;;1.60;1.40;;;3.40;98.20;;;;;;5068276;28;20465;-73
2022/03/18 06:47:13;;;;;;;1.70;1.60;;;3.70;98.20;;;;;;5067747;28;20465;-73
2022/03/18 06:49:40;;;;;;;1.60;1.40;;;4.00;98.20;;;;;;5061019;28;20478;-74
2022/03/18 06:52:08;;;;;;;1.60;1.40;;;4.20;98.20;;;;;;5056269;28;20486;-74
2022/03/18 06:54:35;;;;;;;1.60;1.40;;;4.30;98.20;;;;;;5068640;28;20461;-74
2022/03/18 06:57:02;;;;;;;1.60;1.40;;;4.50;98.20;;;;;;5058314;28;20466;-73
2022/03/18 06:59:29;;;;;;;1.60;1.40;;;4.70;98.20;;;;;;5055575;28;20493;-74
2022/03/18 07:01:55;;;;;;;1.60;1.40;;;5.00;98.20;;;;;;5056312;28;20480;-74
2022/03/18 07:04:22;;;;;;;1.53;1.30;;;5.20;98.20;;;;;;5070347;28;20858;-74
2022/03/18 07:06:49;;;;;;;1.60;1.40;;;5.50;98.20;;;;;;5064799;28;20465;-73
2022/03/18 07:09:17;;;;;;;1.60;1.30;;;5.70;98.20;;;;;;5061070;28;20486;-73
2022/03/18 07:11:43;;;;;;;1.57;1.40;;;5.90;98.20;;;;;;5064834;28;20838;-72
2022/03/18 07:14:10;;;;;;;1.60;1.40;;;6.00;98.20;;;;;;5061436;28;20457;-72
2022/03/18 07:19:21;;;;;;;1.60;1.47;;;6.50;98.20;;;;;;5062443;28;20948;-72
2022/03/18 07:21:47;;;;;;;2.30;2.10;;;6.80;98.20;;;;;;5060733;28;20513;-72
2022/03/18 07:24:14;;;;;;;1.60;1.30;;;6.90;98.20;;;;;;5064321;28;20461;-73
2022/03/18 07:26:42;;;;;;;1.53;1.30;;;7.10;98.20;;;;;;5061559;28;20567;-73
2022/03/18 07:29:09;;;;;;;1.60;1.30;;;7.30;98.20;;;;;;5051451;28;20493;-74
2022/03/18 07:31:36;;;;;;;1.57;1.30;;;7.40;98.20;;;;;;5061436;28;20465;-73
2022/03/18 07:34:02;;;;;;;1.57;1.30;;;7.50;98.20;;;;;;5055013;28;20457;-74
2022/03/18 07:36:29;;;;;;;1.60;1.33;;;7.70;98.20;;;;;;5064437;28;20465;-73
2022/03/18 07:38:56;;;;;;;1.57;1.30;;;7.90;98.20;;;;;;5065786;28;20489;-75
2022/03/18 07:41:23;;;;;;;1.53;1.30;;;8.10;98.20;;;;;;5064144;28;20493;-74
2022/03/18 07:43:51;;;;;;;1.60;1.30;;;8.30;98.20;;;;;;5065522;28;20465;-74
2022/03/18 07:46:18;;;;;;;1.50;1.20;;;8.50;98.20;;;;;;5059406;28;20548;-74
2022/03/18 07:48:46;;;;;;;1.57;1.20;;;8.70;98.20;;;;;;5063352;28;20951;-74
2022/03/18 07:51:13;;;;;;;1.57;1.20;;;8.90;98.20;;;;;;5062395;28;20556;-74
2022/03/18 07:53:40;;;;;;;1.50;1.20;;;9.10;98.20;;;;;;5062972;28;20468;-73
2022/03/18 07:56:07;;;;;;;1.60;1.20;;;9.20;98.20;;;;;;5054697;28;20461;-73
2022/03/18 07:58:34;;;;;;;1.57;1.20;;;9.40;98.20;;;;;;5056708;28;20472;-74
2022/03/18 08:01:02;;;;;;;2.33;2.13;;;9.60;98.20;;;;;;5059821;28;21260;-74
2022/03/18 08:03:28;;;;;;;1.57;1.20;;;9.70;98.20;;;;;;5064607;28;20987;-74
2022/03/18 08:05:55;;;;;;;1.60;1.20;;;9.80;97.40;;;;;;5064268;28;20992;-73
2022/03/18 08:08:22;;;;;;;1.57;1.10;;;9.90;97.20;;;;;;5054210;28;20879;-74
2022/03/18 08:10:49;;;;;;;1.60;1.30;;;10.10;96.40;;;;;;5062233;28;20477;-74
2022/03/18 08:13:16;;;;;;;1.60;1.50;;;10.10;95.50;;;;;;5059567;28;20465;-74
2022/03/18 08:15:44;;;;;;;1.57;1.13;;;10.20;95.80;;;;;;5061045;28;20466;-74
2022/03/18 08:18:13;;;;;;;1.53;1.10;;;10.30;93.00;;;;;;5050688;28;20777;-74
2022/03/18 08:20:40;;;;;;;1.53;1.10;;;10.20;93.70;;;;;;5064042;28;21210;-74
2022/03/18 08:23:07;;;;;;;1.57;1.10;;;10.20;94.20;;;;;;5068708;28;20541;-74
2022/03/18 08:25:34;;;;;;;2.53;2.33;;;10.40;93.50;;;;;;5062072;28;20984;-74
2022/03/18 08:28:01;;;;;;;1.57;1.13;;;10.40;93.00;;;;;;5050238;28;20574;-74
2022/03/18 08:30:29;;;;;;;1.53;1.10;;;10.60;93.30;;;;;;5060441;28;20481;-74
2022/03/18 08:32:55;;;;;;;1.50;1.10;;;10.70;93.00;;;;;;5070007;28;20489;-74
2022/03/18 08:35:24;;;;;;;1.50;1.10;;;10.90;93.70;;;;;;5061583;28;20469;-73
2022/03/18 08:38:00;;;;;;;1.57;1.00;;;11.00;91.70;;;;;;5061994;28;20465;-74
2022/03/18 08:40:28;;;;;;;1.50;1.10;;;11.20;92.90;;;;;;5059657;28;20989;-74
2022/03/18 08:42:56;;;;;;;1.53;1.03;;;11.30;91.40;;;;;;5061576;28;20461;-74
2022/03/18 08:45:23;;;;;;;1.57;1.10;;;11.40;90.80;;;;;;5062510;28;20544;-75
2022/03/18 08:47:54;;;;;;;1.50;1.10;;;11.60;90.60;;;;;;5053507;28;20470;-73
2022/03/18 08:50:22;;;;;;;1.60;1.13;;;11.60;89.00;;;;;;5059986;28;20582;-73
2022/03/18 08:52:51;;;;;;;1.90;1.30;;;11.70;88.80;;;;;;5061419;28;20548;-75
2022/03/18 08:55:19;;;;;;;1.53;1.10;;;11.90;88.50;;;;;;5051025;28;20961;-74
2022/03/18 08:57:45;;;;;;;1.53;1.00;;;12.00;88.50;;;;;;5045920;28;20485;-74
2022/03/18 09:00:15;;;;;;;1.53;1.10;;;12.10;88.10;;;;;;5054796;28;21046;-74
2022/03/18 09:02:43;;;;;;;1.53;1.00;;;12.30;88.60;;;;;;5063404;28;20465;-74
2022/03/18 09:05:11;;;;;;;1.50;1.03;;;12.20;86.70;;;;;;5064387;28;20834;-74
2022/03/18 09:07:39;;;;;;;1.57;1.10;;;12.30;89.10;;;;;;5060643;28;20488;-74
2022/03/18 09:10:09;;;;;;;1.50;1.10;;;12.60;88.60;;;;;;5058026;28;20481;-74
2022/03/18 09:12:36;;;;;;;1.50;1.00;;;12.70;88.60;;;;;;5060273;28;20469;-74
2022/03/18 09:15:03;;;;;;;1.53;1.10;;;12.90;88.20;;;;;;5056164;28;20461;-74
2022/03/18 09:17:30;;;;;;;1.50;1.00;;;13.10;87.10;;;;;;5048845;28;20485;-74
2022/03/18 09:19:57;;;;;;;1.50;1.00;;;13.20;85.70;;;;;;5060655;28;20493;-74
2022/03/18 09:22:24;;;;;;;1.50;1.10;;;13.30;85.90;;;;;;5066405;28;20882;-73
2022/03/18 09:24:50;;;;;;;1.57;1.00;;;13.50;85.80;;;;;;5067827;28;20469;-74
2022/03/18 09:27:19;;;;;;;1.50;1.00;;;13.70;84.70;;;;;;5060964;28;20847;-74
2022/03/18 09:29:45;;;;;;;1.50;1.00;;;13.90;84.30;;;;;;5066543;28;20477;-75
2022/03/18 09:32:12;;;;;;;1.50;1.00;;;14.10;83.30;;;;;;5067272;28;20453;-74
2022/03/18 09:34:39;;;;;;;1.50;1.00;;;14.20;82.70;;;;;;5068029;28;20468;-75
2022/03/18 09:37:06;;;;;;;1.50;1.00;;;14.30;83.00;;;;;;5067037;28;20492;-74
2022/03/18 09:39:36;;;;;;;1.53;1.00;;;14.50;82.70;;;;;;5072949;28;20481;-74
2022/03/18 09:42:03;;;;;;;1.50;1.00;;;14.80;81.90;;;;;;5058327;28;20485;-75
2022/03/18 09:44:37;;;;;;;1.53;1.00;;;15.00;82.40;;;;;;5057574;28;20468;-73
2022/03/18 09:47:18;;;;;;;1.50;1.00;;;15.30;82.70;;;;;;5059283;28;20952;-73
2022/03/18 09:49:46;;;;;;;1.50;1.00;;;15.40;79.30;;;;;;5068450;28;20513;-75
2022/03/18 09:52:15;;;;;;;1.53;1.00;;;15.50;80.40;;;;;;5068361;28;20621;-75
2022/03/18 09:54:42;;;;;;;1.50;1.00;;;15.70;78.60;;;;;;5065142;28;20461;-73
2022/03/18 09:57:09;;;;;;;1.60;1.20;;;15.90;77.10;;;;;;5061089;28;20458;-75
2022/03/18 09:59:38;;;;;;;1.50;0.93;;;16.10;76.80;;;;;;5059901;28;21000;-74
2022/03/18 10:02:28;;;;;;;1.57;0.97;;;16.20;74.70;;;;;;5060674;28;20564;-72
2022/03/18 10:04:57;;;;;;;1.50;1.00;;;16.40;74.70;;;;;;5063678;28;20965;-74
2022/03/18 10:07:25;;;;;;;1.50;0.90;;;16.50;73.60;;;;;;5063686;28;20457;-74
2022/03/18 10:10:08;;;;;;;1.50;1.00;;;16.60;73.10;;;;;;5058907;28;20481;-76
2022/03/18 10:12:36;;;;;;;1.50;0.90;;;16.60;70.90;;;;;;5063161;28;20556;-72
2022/03/18 10:15:17;;;;;;;1.50;1.00;;;16.60;70.10;;;;;;5062027;28;20465;-73
2022/03/18 10:17:47;;;;;;;1.50;1.00;;;16.50;69.30;;;;;;5060852;28;20539;-72
2022/03/18 10:20:31;;;;;;;1.50;0.90;;;16.50;70.00;;;;;;5065268;28;20581;-72
2022/03/18 10:23:04;;;;;;;1.50;1.00;;;16.50;69.50;;;;;;5061768;28;20556;-73
2022/03/18 10:25:48;;;;;;;1.50;0.93;;;16.60;68.90;;;;;;5059903;28;20462;-73
2022/03/18 10:28:15;;;;;;;1.50;1.00;;;16.70;69.60;;;;;;5049762;28;20493;-73
2022/03/18 10:30:43;;;;;;;1.50;0.90;;;16.80;70.60;;;;;;5061617;28;20535;-73
2022/03/18 10:33:10;;;;;;;1.50;0.90;;;16.90;71.60;;;;;;5066318;28;20493;-73
2022/03/18 10:38:29;;;;;;;1.50;1.00;;;17.00;68.50;;;;;;5064398;28;20550;-72
2022/03/18 10:40:57;;;;;;;1.50;0.90;;;17.20;70.30;;;;;;5053906;28;20576;-73
2022/03/18 10:43:24;;;;;;;1.70;1.20;;;17.00;67.90;;;;;;5080843;28;20552;-74
2022/03/18 10:46:07;;;;;;;1.50;0.90;;;16.90;67.50;;;;;;5062883;28;20552;-75
2022/03/18 10:48:34;;;;;;;1.50;0.90;;;16.80;67.20;;;;;;5060269;28;20461;-72
2022/03/18 10:51:08;;;;;;;1.50;0.93;;;16.80;68.80;;;;;;5052428;28;20847;-72
2022/03/18 10:53:37;;;;;;;1.50;0.90;;;16.70;67.40;;;;;;5078515;28;21226;-74
2022/03/18 10:56:04;;;;;;;1.60;1.23;;;16.60;70.00;;;;;;5058247;28;20457;-72
2022/03/18 10:58:32;;;;;;;1.50;0.90;;;16.60;69.30;;;;;;5077710;28;20577;-72
2022/03/18 11:01:01;;;;;;;1.50;0.90;;;16.60;69.20;;;;;;5063588;28;20493;-73
2022/03/18 11:03:31;;;;;;;1.50;0.90;;;16.80;70.00;;;;;;5059333;28;20466;-73
2022/03/18 11:06:02;;;;;;;1.50;0.93;;;16.90;68.30;;;;;;5062396;28;20969;-73
2022/03/18 11:08:43;;;;;;;1.50;0.90;;;17.00;68.30;;;;;;5062502;28;20877;-72
2022/03/18 11:11:15;;;;;;;1.50;0.90;;;16.90;66.30;;;;;;5064116;28;20951;-72
2022/03/18 11:13:56;;;;;;;1.47;0.90;;;17.00;66.00;;;;;;5059633;28;20469;-72
2022/03/18 11:16:25;;;;;;;1.50;0.90;;;17.00;66.80;;;;;;5055476;28;21099;-73
2022/03/18 11:18:54;;;;;;;1.50;0.90;;;17.10;66.70;;;;;;5060672;28;20940;-73
2022/03/18 11:21:21;;;;;;;1.50;1.00;;;17.10;63.20;;;;;;5059681;28;20485;-73
2022/03/18 11:23:50;;;;;;;1.50;0.90;;;17.20;62.00;;;;;;5065432;28;20465;-73
2022/03/18 11:26:18;;;;;;;1.50;1.00;;;17.20;61.90;;;;;;5061867;28;20473;-74
2022/03/18 11:28:46;;;;;;;1.47;0.93;;;17.10;61.50;;;;;;5050924;28;20466;-74
2022/03/18 11:31:17;;;;;;;1.50;0.90;;;17.20;61.20;;;;;;5059404;28;20548;-71
2022/03/18 11:34:10;;;;;;;1.47;0.90;;;17.20;62.10;;;;;;5059439;28;20463;-74
2022/03/18 11:36:38;;;;;;;1.50;1.00;;;17.40;60.70;;;;;;5063707;28;20503;-73
2022/03/18 11:39:08;;;;;;;1.50;1.00;;;17.40;58.90;;;;;;5058654;28;20543;-74
2022/03/18 11:41:55;;;;;;;1.50;0.90;;;17.40;58.70;;;;;;5059147;28;20484;-73
2022/03/18 11:44:43;;;;;;;1.47;1.00;;;17.30;58.40;;;;;;5067672;28;20472;-74
2022/03/18 11:47:44;;;;;;;1.50;0.90;;;17.30;58.50;;;;;;5057612;28;20461;-74
2022/03/18 11:50:48;;;;;;;1.50;0.90;;;17.20;58.90;;;;;;5055916;28;20738;-73
2022/03/18 11:53:48;;;;;;;1.50;0.90;;;17.30;58.50;;;;;;5048768;28;20481;-74
2022/03/18 11:56:15;;;;;;;1.43;0.90;;;17.10;57.10;;;;;;5059693;28;20472;-73
2022/03/18 11:58:42;;;;;;;1.50;0.97;;;17.20;59.20;;;;;;5058582;28;20476;-73
2022/03/18 12:01:42;;;;;;;1.50;1.00;;;17.20;57.00;;;;;;5054492;28;20581;-73
2022/03/18 12:04:09;;;;;;;1.50;0.90;;;17.30;58.10;;;;;;5060770;28;20533;-73
2022/03/18 12:07:10;;;;;;;1.50;1.00;;;17.40;59.00;;;;;;5044424;28;20560;-73
2022/03/18 12:09:56;;;;;;;1.47;0.90;;;17.20;56.70;;;;;;5051807;28;21025;-73
2022/03/18 12:12:26;;;;;;;1.50;1.00;;;17.20;58.40;;;;;;5061237;28;20465;-73
2022/03/18 12:14:54;;;;;;;1.50;0.93;;;17.10;57.20;;;;;;5063087;28;20465;-74
2022/03/18 12:17:21;;;;;;;1.50;1.00;;;17.10;59.00;;;;;;5063755;28;20874;-73
2022/03/18 12:19:53;;;;;;;1.50;0.90;;;17.10;56.70;;;;;;5062930;28;21046;-73
2022/03/18 12:22:22;;;;;;;1.50;0.90;;;17.10;59.20;;;;;;5057833;28;21587;-72
2022/03/18 12:24:52;;;;;;;1.50;0.90;;;17.20;58.10;;;;;;5057359;28;20488;-73
2022/03/18 12:27:21;;;;;;;1.43;0.90;;;17.30;59.00;;;;;;5052673;28;20480;-74
2022/03/18 12:29:48;;;;;;;1.50;0.90;;;17.40;59.00;;;;;;5053780;28;20492;-74
2022/03/18 12:32:16;;;;;;;1.50;1.00;;;17.50;57.90;;;;;;5053793;28;20472;-73
2022/03/18 12:34:48;;;;;;;1.50;1.10;;;17.50;59.20;;;;;;5055900;28;20798;-73
2022/03/18 12:37:19;;;;;;;1.50;1.00;;;17.60;61.80;;;;;;5058983;28;20635;-73
2022/03/18 12:39:46;;;;;;;1.47;0.90;;;17.60;59.20;;;;;;5053173;28;20506;-73
2022/03/18 12:42:16;;;;;;;1.50;0.90;;;17.60;61.50;;;;;;5062876;28;20543;-73
2022/03/18 12:44:47;;;;;;;1.43;0.90;;;17.80;60.90;;;;;;5056546;28;20527;-72
2022/03/18 12:47:16;;;;;;;1.50;0.90;;;17.90;58.50;;;;;;5054846;28;20459;-74
2022/03/18 12:49:43;;;;;;;1.50;0.90;;;17.80;57.10;;;;;;5065222;28;20574;-74
2022/03/18 12:52:11;;;;;;;1.50;0.90;;;17.80;57.10;;;;;;5061733;28;20550;-75
2022/03/18 12:54:39;;;;;;;1.47;0.90;;;17.90;57.70;;;;;;5066134;28;20542;-74
2022/03/18 12:57:10;;;;;;;1.50;1.00;;;18.00;56.10;;;;;;5057055;28;20465;-74
2022/03/18 12:59:42;;;;;;;1.50;0.90;;;18.00;55.80;;;;;;5061602;28;21044;-74
2022/03/18 13:02:12;;;;;;;1.50;0.90;;;18.00;56.40;;;;;;5064797;28;20480;-74
2022/03/18 13:04:42;;;;;;;1.50;0.90;;;18.00;54.20;;;;;;5057441;28;20945;-74
2022/03/18 13:07:10;;;;;;;1.50;1.00;;;18.00;55.40;;;;;;5062411;28;20889;-73
2022/03/18 13:09:47;;;;;;;1.47;0.90;;;18.10;54.20;;;;;;5059927;28;20517;-73
2022/03/18 13:12:23;;;;;;;1.47;0.90;;;18.10;54.60;;;;;;5057407;28;20465;-74
2022/03/18 13:14:55;;;;;;;1.50;0.90;;;17.90;54.30;;;;;;5062114;28;20976;-73